sensor_id;sensor_type;location;lat;lon;timestamp;P1;durP1;ratioP1;P2;durP2;ratioP2
22254;SDS011;11296;42.684;23.322;2022-09-03T00:02:57;9.97;;;6.70;;
22254;SDS011;11296;42.684;23.322;2022-09-03T00:05:36;9.83;;;6.70;;
22254;SDS011;11296;42.684;23.322;2022-09-03T00:08:26;10.53;;;7.13;;
22254;SDS011;11296;42.684;23.322;2022-09-03T00:11:02;8.63;;;6.07;;
22254;SDS011;11296;42.684;23.322;2022-09-03T00:13:39;8.83;;;6.53;;
22254;SDS011;11296;42.684;23.322;2022-09-03T00:16:16;8.13;;;6.47;;
22254;SDS011;11296;42.684;23.322;2022-09-03T00:18:54;8.50;;;6.47;;
22254;SDS011;11296;42.684;23.322;2022-09-03T00:24:05;9.53;;;6.57;;
22254;SDS011;11296;42.684;23.322;2022-09-03T00:26:35;8.13;;;6.87;;
22254;SDS011;11296;42.684;23.322;2022-09-03T00:29:12;9.47;;;6.80;;
22254;SDS011;11296;42.684;23.322;2022-09-03T00:31:43;8.07;;;6.47;;
22254;SDS011;11296;42.684;23.322;2022-09-03T00:34:31;8.33;;;6.77;;
22254;SDS011;11296;42.684;23.322;2022-09-03T00:37:08;8.97;;;6.67;;
22254;SDS011;11296;42.684;23.322;2022-09-03T00:39:36;7.53;;;6.80;;
22254;SDS011;11296;42.684;23.322;2022-09-03T01:29:50;7.43;;;6.60;;
22254;SDS011;11296;42.684;23.322;2022-09-03T01:35:45;5.97;;;5.37;;
22254;SDS011;11296;42.684;23.322;2022-09-03T01:38:28;8.20;;;6.77;;
22254;SDS011;11296;42.684;23.322;2022-09-03T01:41:19;7.20;;;6.17;;
22254;SDS011;11296;42.684;23.322;2022-09-03T01:44:24;7.57;;;6.77;;
22254;SDS011;11296;42.684;23.322;2022-09-03T01:47:31;8.80;;;6.97;;
22254;SDS011;11296;42.684;23.322;2022-09-03T02:00:23;9.30;;;6.77;;
22254;SDS011;11296;42.684;23.322;2022-09-03T02:02:52;7.70;;;6.90;;
22254;SDS011;11296;42.684;23.322;2022-09-03T02:05:27;8.40;;;6.83;;
22254;SDS011;11296;42.684;23.322;2022-09-03T02:10:37;8.70;;;7.23;;
22254;SDS011;11296;42.684;23.322;2022-09-03T02:13:12;7.93;;;6.87;;
22254;SDS011;11296;42.684;23.322;2022-09-03T02:15:40;7.40;;;6.30;;
22254;SDS011;11296;42.684;23.322;2022-09-03T02:18:12;9.37;;;6.90;;
22254;SDS011;11296;42.684;23.322;2022-09-03T02:20:42;8.30;;;7.13;;
22254;SDS011;11296;42.684;23.322;2022-09-03T02:23:08;7.13;;;5.73;;
22254;SDS011;11296;42.684;23.322;2022-09-03T02:25:38;10.00;;;7.10;;
22254;SDS011;11296;42.684;23.322;2022-09-03T02:28:06;8.70;;;7.10;;
22254;SDS011;11296;42.684;23.322;2022-09-03T02:30:34;8.13;;;6.97;;
22254;SDS011;11296;42.684;23.322;2022-09-03T02:32:59;10.73;;;7.40;;
22254;SDS011;11296;42.684;23.322;2022-09-03T02:35:27;9.30;;;8.20;;
22254;SDS011;11296;42.684;23.322;2022-09-03T02:37:53;10.17;;;8.00;;
22254;SDS011;11296;42.684;23.322;2022-09-03T02:40:19;9.77;;;7.63;;
22254;SDS011;11296;42.684;23.322;2022-09-03T02:42:45;9.57;;;7.47;;
22254;SDS011;11296;42.684;23.322;2022-09-03T02:47:46;9.43;;;7.63;;
22254;SDS011;11296;42.684;23.322;2022-09-03T02:50:17;12.67;;;7.93;;
22254;SDS011;11296;42.684;23.322;2022-09-03T02:52:43;8.23;;;7.20;;
22254;SDS011;11296;42.684;23.322;2022-09-03T02:55:09;8.73;;;7.83;;
22254;SDS011;11296;42.684;23.322;2022-09-03T02:57:35;8.30;;;7.17;;
22254;SDS011;11296;42.684;23.322;2022-09-03T03:00:00;8.83;;;6.97;;
22254;SDS011;11296;42.684;23.322;2022-09-03T03:02:26;9.43;;;7.63;;
22254;SDS011;11296;42.684;23.322;2022-09-03T03:04:52;7.67;;;6.67;;
22254;SDS011;11296;42.684;23.322;2022-09-03T03:07:19;8.40;;;7.60;;
22254;SDS011;11296;42.684;23.322;2022-09-03T03:09:45;9.43;;;7.30;;
22254;SDS011;11296;42.684;23.322;2022-09-03T03:12:11;11.37;;;8.30;;
22254;SDS011;11296;42.684;23.322;2022-09-03T03:14:37;8.33;;;7.40;;
22254;SDS011;11296;42.684;23.322;2022-09-03T03:17:03;11.60;;;8.10;;
22254;SDS011;11296;42.684;23.322;2022-09-03T03:19:28;8.70;;;6.87;;
22254;SDS011;11296;42.684;23.322;2022-09-03T03:21:54;9.60;;;8.20;;
22254;SDS011;11296;42.684;23.322;2022-09-03T03:24:20;9.27;;;7.70;;
22254;SDS011;11296;42.684;23.322;2022-09-03T03:26:46;8.43;;;7.17;;
22254;SDS011;11296;42.684;23.322;2022-09-03T03:29:15;8.73;;;7.27;;
22254;SDS011;11296;42.684;23.322;2022-09-03T03:31:42;10.07;;;7.80;;
22254;SDS011;11296;42.684;23.322;2022-09-03T03:34:08;8.90;;;7.40;;
22254;SDS011;11296;42.684;23.322;2022-09-03T03:36:33;9.60;;;7.70;;
22254;SDS011;11296;42.684;23.322;2022-09-03T03:39:01;8.70;;;7.37;;
22254;SDS011;11296;42.684;23.322;2022-09-03T03:41:28;8.53;;;7.47;;
22254;SDS011;11296;42.684;23.322;2022-09-03T03:43:57;8.87;;;6.53;;
22254;SDS011;11296;42.684;23.322;2022-09-03T03:46:27;8.97;;;6.60;;
22254;SDS011;11296;42.684;23.322;2022-09-03T03:48:55;8.07;;;7.20;;
22254;SDS011;11296;42.684;23.322;2022-09-03T03:51:21;9.90;;;7.40;;
22254;SDS011;11296;42.684;23.322;2022-09-03T03:53:46;8.33;;;6.93;;
22254;SDS011;11296;42.684;23.322;2022-09-03T03:56:13;9.40;;;8.40;;
22254;SDS011;11296;42.684;23.322;2022-09-03T03:58:41;8.10;;;7.30;;
22254;SDS011;11296;42.684;23.322;2022-09-03T04:03:41;9.10;;;7.90;;
22254;SDS011;11296;42.684;23.322;2022-09-03T04:06:07;10.07;;;7.53;;
22254;SDS011;11296;42.684;23.322;2022-09-03T04:08:36;9.47;;;8.23;;
22254;SDS011;11296;42.684;23.322;2022-09-03T04:11:06;10.53;;;7.30;;
22254;SDS011;11296;42.684;23.322;2022-09-03T04:13:35;9.90;;;8.13;;
22254;SDS011;11296;42.684;23.322;2022-09-03T04:16:03;9.97;;;8.10;;
22254;SDS011;11296;42.684;23.322;2022-09-03T04:18:34;8.87;;;7.10;;
22254;SDS011;11296;42.684;23.322;2022-09-03T04:21:02;11.87;;;8.03;;
22254;SDS011;11296;42.684;23.322;2022-09-03T04:23:36;8.53;;;7.27;;
22254;SDS011;11296;42.684;23.322;2022-09-03T04:26:09;8.93;;;6.90;;
22254;SDS011;11296;42.684;23.322;2022-09-03T04:28:36;9.97;;;8.27;;
22254;SDS011;11296;42.684;23.322;2022-09-03T04:31:03;8.67;;;7.53;;
22254;SDS011;11296;42.684;23.322;2022-09-03T04:33:31;8.43;;;6.70;;
22254;SDS011;11296;42.684;23.322;2022-09-03T04:38:36;11.10;;;7.73;;
22254;SDS011;11296;42.684;23.322;2022-09-03T04:41:07;8.97;;;8.03;;
22254;SDS011;11296;42.684;23.322;2022-09-03T04:43:34;8.57;;;7.67;;
22254;SDS011;11296;42.684;23.322;2022-09-03T04:46:01;8.70;;;7.60;;
22254;SDS011;11296;42.684;23.322;2022-09-03T04:48:29;8.93;;;7.00;;
22254;SDS011;11296;42.684;23.322;2022-09-03T04:51:29;10.60;;;8.00;;
22254;SDS011;11296;42.684;23.322;2022-09-03T04:53:53;10.30;;;7.70;;
22254;SDS011;11296;42.684;23.322;2022-09-03T04:56:24;9.30;;;7.73;;
22254;SDS011;11296;42.684;23.322;2022-09-03T04:58:59;9.30;;;7.53;;
22254;SDS011;11296;42.684;23.322;2022-09-03T05:01:31;8.50;;;7.00;;
22254;SDS011;11296;42.684;23.322;2022-09-03T05:04:01;8.50;;;7.60;;
22254;SDS011;11296;42.684;23.322;2022-09-03T05:06:33;8.97;;;8.00;;
22254;SDS011;11296;42.684;23.322;2022-09-03T05:09:01;10.87;;;7.70;;
22254;SDS011;11296;42.684;23.322;2022-09-03T05:11:30;11.63;;;8.30;;
22254;SDS011;11296;42.684;23.322;2022-09-03T05:13:56;9.97;;;7.83;;
22254;SDS011;11296;42.684;23.322;2022-09-03T05:16:24;9.83;;;7.23;;
22254;SDS011;11296;42.684;23.322;2022-09-03T05:18:52;8.93;;;6.77;;
22254;SDS011;11296;42.684;23.322;2022-09-03T05:21:19;7.47;;;6.67;;
22254;SDS011;11296;42.684;23.322;2022-09-03T05:23:46;7.93;;;6.90;;
22254;SDS011;11296;42.684;23.322;2022-09-03T05:26:15;8.03;;;7.23;;
22254;SDS011;11296;42.684;23.322;2022-09-03T05:28:43;7.90;;;6.90;;
22254;SDS011;11296;42.684;23.322;2022-09-03T05:31:17;7.73;;;6.93;;
22254;SDS011;11296;42.684;23.322;2022-09-03T05:36:41;6.73;;;6.03;;
22254;SDS011;11296;42.684;23.322;2022-09-03T05:39:16;8.93;;;7.10;;
22254;SDS011;11296;42.684;23.322;2022-09-03T05:41:45;8.73;;;6.80;;
22254;SDS011;11296;42.684;23.322;2022-09-03T05:44:40;8.53;;;6.23;;
22254;SDS011;11296;42.684;23.322;2022-09-03T05:47:42;8.13;;;7.07;;
22254;SDS011;11296;42.684;23.322;2022-09-03T05:50:08;7.97;;;6.37;;
22254;SDS011;11296;42.684;23.322;2022-09-03T05:52:38;8.03;;;7.23;;
22254;SDS011;11296;42.684;23.322;2022-09-03T05:55:05;8.07;;;6.40;;
22254;SDS011;11296;42.684;23.322;2022-09-03T05:57:33;8.17;;;7.27;;
22254;SDS011;11296;42.684;23.322;2022-09-03T05:59:59;8.03;;;7.07;;
22254;SDS011;11296;42.684;23.322;2022-09-03T06:02:25;7.43;;;6.73;;
22254;SDS011;11296;42.684;23.322;2022-09-03T06:04:51;7.63;;;6.60;;
22254;SDS011;11296;42.684;23.322;2022-09-03T06:07:18;6.43;;;5.83;;
22254;SDS011;11296;42.684;23.322;2022-09-03T06:09:45;7.27;;;6.53;;
22254;SDS011;11296;42.684;23.322;2022-09-03T06:12:10;9.67;;;6.93;;
22254;SDS011;11296;42.684;23.322;2022-09-03T06:14:36;6.87;;;6.27;;
22254;SDS011;11296;42.684;23.322;2022-09-03T06:17:02;6.47;;;5.87;;
22254;SDS011;11296;42.684;23.322;2022-09-03T06:19:27;6.83;;;6.13;;
22254;SDS011;11296;42.684;23.322;2022-09-03T06:21:56;6.90;;;6.20;;
22254;SDS011;11296;42.684;23.322;2022-09-03T06:24:21;7.10;;;6.40;;
22254;SDS011;11296;42.684;23.322;2022-09-03T06:27:07;7.80;;;6.80;;
22254;SDS011;11296;42.684;23.322;2022-09-03T06:29:33;7.50;;;6.77;;
22254;SDS011;11296;42.684;23.322;2022-09-03T06:32:11;7.60;;;6.80;;
22254;SDS011;11296;42.684;23.322;2022-09-03T06:34:38;7.33;;;6.63;;
22254;SDS011;11296;42.684;23.322;2022-09-03T06:37:20;7.53;;;6.80;;
22254;SDS011;11296;42.684;23.322;2022-09-03T06:40:19;8.00;;;7.20;;
22254;SDS011;11296;42.684;23.322;2022-09-03T06:42:58;7.47;;;6.63;;
22254;SDS011;11296;42.684;23.322;2022-09-03T06:45:28;9.07;;;7.10;;
22254;SDS011;11296;42.684;23.322;2022-09-03T06:47:58;8.60;;;7.30;;
22254;SDS011;11296;42.684;23.322;2022-09-03T06:51:17;10.03;;;7.77;;
22254;SDS011;11296;42.684;23.322;2022-09-03T06:53:22;7.60;;;6.80;;
22254;SDS011;11296;42.684;23.322;2022-09-03T06:55:59;8.40;;;6.97;;
22254;SDS011;11296;42.684;23.322;2022-09-03T06:58:30;8.00;;;7.20;;
22254;SDS011;11296;42.684;23.322;2022-09-03T07:01:04;8.13;;;7.07;;
22254;SDS011;11296;42.684;23.322;2022-09-03T07:03:36;7.20;;;6.50;;
22254;SDS011;11296;42.684;23.322;2022-09-03T07:06:09;8.47;;;6.30;;
22254;SDS011;11296;42.684;23.322;2022-09-03T07:08:47;7.73;;;6.93;;
22254;SDS011;11296;42.684;23.322;2022-09-03T07:11:17;9.93;;;7.20;;
22254;SDS011;11296;42.684;23.322;2022-09-03T07:14:01;7.43;;;6.70;;
22254;SDS011;11296;42.684;23.322;2022-09-03T07:16:36;8.07;;;7.27;;
22254;SDS011;11296;42.684;23.322;2022-09-03T07:19:04;8.57;;;7.30;;
22254;SDS011;11296;42.684;23.322;2022-09-03T07:21:38;7.07;;;6.37;;
22254;SDS011;11296;42.684;23.322;2022-09-03T07:24:08;7.77;;;6.40;;
22254;SDS011;11296;42.684;23.322;2022-09-03T07:27:40;9.60;;;6.70;;
22254;SDS011;11296;42.684;23.322;2022-09-03T07:30:19;7.20;;;6.50;;
22254;SDS011;11296;42.684;23.322;2022-09-03T07:33:05;6.53;;;5.93;;
22254;SDS011;11296;42.684;23.322;2022-09-03T07:35:38;7.43;;;6.63;;
22254;SDS011;11296;42.684;23.322;2022-09-03T07:38:11;7.47;;;6.33;;
22254;SDS011;11296;42.684;23.322;2022-09-03T07:40:44;7.40;;;6.70;;
22254;SDS011;11296;42.684;23.322;2022-09-03T07:43:23;5.97;;;4.63;;
22254;SDS011;11296;42.684;23.322;2022-09-03T07:45:49;6.23;;;5.63;;
22254;SDS011;11296;42.684;23.322;2022-09-03T07:48:15;7.30;;;6.60;;
22254;SDS011;11296;42.684;23.322;2022-09-03T07:50:45;7.60;;;6.70;;
22254;SDS011;11296;42.684;23.322;2022-09-03T07:53:17;7.50;;;6.80;;
22254;SDS011;11296;42.684;23.322;2022-09-03T07:55:47;7.10;;;5.97;;
22254;SDS011;11296;42.684;23.322;2022-09-03T07:58:14;6.30;;;5.67;;
22254;SDS011;11296;42.684;23.322;2022-09-03T08:00:55;7.60;;;6.90;;
22254;SDS011;11296;42.684;23.322;2022-09-03T08:03:23;7.33;;;6.70;;
22254;SDS011;11296;42.684;23.322;2022-09-03T08:06:00;7.33;;;6.63;;
22254;SDS011;11296;42.684;23.322;2022-09-03T08:08:31;5.73;;;5.23;;
22254;SDS011;11296;42.684;23.322;2022-09-03T08:11:07;7.07;;;6.47;;
22254;SDS011;11296;42.684;23.322;2022-09-03T08:14:05;6.63;;;5.77;;
22254;SDS011;11296;42.684;23.322;2022-09-03T08:16:55;6.33;;;5.73;;
22254;SDS011;11296;42.684;23.322;2022-09-03T08:19:37;7.03;;;6.40;;
22254;SDS011;11296;42.684;23.322;2022-09-03T08:22:05;7.13;;;5.43;;
22254;SDS011;11296;42.684;23.322;2022-09-03T08:24:39;6.60;;;6.00;;
22254;SDS011;11296;42.684;23.322;2022-09-03T08:27:07;6.70;;;6.10;;
22254;SDS011;11296;42.684;23.322;2022-09-03T08:29:33;7.37;;;5.97;;
22254;SDS011;11296;42.684;23.322;2022-09-03T08:31:59;5.90;;;5.40;;
22254;SDS011;11296;42.684;23.322;2022-09-03T08:34:28;5.10;;;4.70;;
22254;SDS011;11296;42.684;23.322;2022-09-03T08:36:57;5.20;;;4.80;;
22254;SDS011;11296;42.684;23.322;2022-09-03T08:39:29;6.20;;;5.70;;
22254;SDS011;11296;42.684;23.322;2022-09-03T08:42:05;5.23;;;4.80;;
22254;SDS011;11296;42.684;23.322;2022-09-03T08:45:11;5.27;;;4.77;;
22254;SDS011;11296;42.684;23.322;2022-09-03T08:50:27;5.00;;;4.60;;
22254;SDS011;11296;42.684;23.322;2022-09-03T08:53:15;5.63;;;4.70;;
22254;SDS011;11296;42.684;23.322;2022-09-03T08:55:53;6.43;;;5.80;;
22254;SDS011;11296;42.684;23.322;2022-09-03T08:58:32;5.37;;;4.87;;
22254;SDS011;11296;42.684;23.322;2022-09-03T09:06:07;6.27;;;5.77;;
22254;SDS011;11296;42.684;23.322;2022-09-03T09:18:19;5.80;;;5.30;;
22254;SDS011;11296;42.684;23.322;2022-09-03T09:21:14;5.80;;;5.30;;
22254;SDS011;11296;42.684;23.322;2022-09-03T09:23:48;6.27;;;5.53;;
22254;SDS011;11296;42.684;23.322;2022-09-03T09:26:19;5.97;;;5.47;;
22254;SDS011;11296;42.684;23.322;2022-09-03T09:28:46;7.13;;;5.50;;
22254;SDS011;11296;42.684;23.322;2022-09-03T09:31:19;6.13;;;5.63;;
22254;SDS011;11296;42.684;23.322;2022-09-03T09:33:45;6.37;;;5.87;;
22254;SDS011;11296;42.684;23.322;2022-09-03T09:36:12;7.03;;;5.80;;
22254;SDS011;11296;42.684;23.322;2022-09-03T09:38:44;6.23;;;5.73;;
22254;SDS011;11296;42.684;23.322;2022-09-03T09:41:14;6.53;;;5.87;;
22254;SDS011;11296;42.684;23.322;2022-09-03T09:43:44;5.70;;;5.10;;
22254;SDS011;11296;42.684;23.322;2022-09-03T09:46:15;5.53;;;5.13;;
22254;SDS011;11296;42.684;23.322;2022-09-03T09:48:54;5.00;;;4.60;;
22254;SDS011;11296;42.684;23.322;2022-09-03T09:51:24;6.60;;;6.00;;
22254;SDS011;11296;42.684;23.322;2022-09-03T09:54:01;6.33;;;5.57;;
22254;SDS011;11296;42.684;23.322;2022-09-03T09:56:32;5.27;;;4.80;;
22254;SDS011;11296;42.684;23.322;2022-09-03T09:59:05;4.90;;;4.50;;
22254;SDS011;11296;42.684;23.322;2022-09-03T10:01:36;5.00;;;4.60;;
22254;SDS011;11296;42.684;23.322;2022-09-03T10:06:59;5.10;;;4.70;;
22254;SDS011;11296;42.684;23.322;2022-09-03T10:09:56;6.00;;;5.40;;
22254;SDS011;11296;42.684;23.322;2022-09-03T10:12:30;5.47;;;4.93;;
22254;SDS011;11296;42.684;23.322;2022-09-03T10:15:20;6.07;;;5.53;;
22254;SDS011;11296;42.684;23.322;2022-09-03T10:18:04;5.10;;;4.70;;
22254;SDS011;11296;42.684;23.322;2022-09-03T10:20:33;5.30;;;4.90;;
22254;SDS011;11296;42.684;23.322;2022-09-03T10:23:14;5.50;;;5.10;;
22254;SDS011;11296;42.684;23.322;2022-09-03T10:28:44;9.77;;;8.87;;
22254;SDS011;11296;42.684;23.322;2022-09-03T10:34:14;4.33;;;3.93;;
22254;SDS011;11296;42.684;23.322;2022-09-03T10:42:43;4.97;;;4.57;;
22254;SDS011;11296;42.684;23.322;2022-09-03T11:01:03;5.33;;;4.93;;
22254;SDS011;11296;42.684;23.322;2022-09-03T11:07:00;6.00;;;5.40;;
22254;SDS011;11296;42.684;23.322;2022-09-03T11:09:39;6.80;;;6.20;;
22254;SDS011;11296;42.684;23.322;2022-09-03T11:14:52;4.93;;;4.53;;
22254;SDS011;11296;42.684;23.322;2022-09-03T11:17:41;5.50;;;5.10;;
22254;SDS011;11296;42.684;23.322;2022-09-03T11:20:18;5.47;;;5.00;;
22254;SDS011;11296;42.684;23.322;2022-09-03T11:22:50;5.37;;;4.97;;
22254;SDS011;11296;42.684;23.322;2022-09-03T11:25:19;4.50;;;4.10;;
22254;SDS011;11296;42.684;23.322;2022-09-03T11:43:36;4.73;;;4.33;;
22254;SDS011;11296;42.684;23.322;2022-09-03T11:47:35;4.97;;;4.57;;
22254;SDS011;11296;42.684;23.322;2022-09-03T11:50:52;4.80;;;4.40;;
22254;SDS011;11296;42.684;23.322;2022-09-03T11:53:26;5.30;;;4.90;;
22254;SDS011;11296;42.684;23.322;2022-09-03T11:58:37;5.40;;;4.87;;
22254;SDS011;11296;42.684;23.322;2022-09-03T12:01:10;5.63;;;5.13;;
22254;SDS011;11296;42.684;23.322;2022-09-03T12:03:42;5.47;;;4.97;;
22254;SDS011;11296;42.684;23.322;2022-09-03T12:12:10;5.63;;;5.13;;
22254;SDS011;11296;42.684;23.322;2022-09-03T12:20:39;7.07;;;5.40;;
22254;SDS011;11296;42.684;23.322;2022-09-03T12:23:06;6.27;;;5.67;;
22254;SDS011;11296;42.684;23.322;2022-09-03T12:25:35;6.17;;;5.57;;
22254;SDS011;11296;42.684;23.322;2022-09-03T12:28:12;6.70;;;6.00;;
22254;SDS011;11296;42.684;23.322;2022-09-03T12:30:43;6.00;;;5.38;;
22254;SDS011;11296;42.684;23.322;2022-09-03T12:33:10;5.80;;;5.30;;
22254;SDS011;11296;42.684;23.322;2022-09-03T12:35:41;5.93;;;5.35;;
22254;SDS011;11296;42.684;23.322;2022-09-03T12:38:06;4.95;;;4.55;;
22254;SDS011;11296;42.684;23.322;2022-09-03T12:40:32;4.88;;;4.47;;
22254;SDS011;11296;42.684;23.322;2022-09-03T12:43:14;5.40;;;5.00;;
22254;SDS011;11296;42.684;23.322;2022-09-03T12:45:42;5.10;;;4.60;;
22254;SDS011;11296;42.684;23.322;2022-09-03T12:48:17;5.60;;;5.10;;
22254;SDS011;11296;42.684;23.322;2022-09-03T12:50:44;5.20;;;4.80;;
22254;SDS011;11296;42.684;23.322;2022-09-03T12:53:13;4.57;;;4.28;;
22254;SDS011;11296;42.684;23.322;2022-09-03T12:55:55;4.57;;;4.25;;
22254;SDS011;11296;42.684;23.322;2022-09-03T12:58:35;4.07;;;3.78;;
22254;SDS011;11296;42.684;23.322;2022-09-03T13:01:08;6.10;;;5.60;;
22254;SDS011;11296;42.684;23.322;2022-09-03T13:03:43;4.10;;;3.80;;
22254;SDS011;11296;42.684;23.322;2022-09-03T13:06:11;4.13;;;3.83;;
22254;SDS011;11296;42.684;23.322;2022-09-03T13:09:02;5.05;;;4.65;;
22254;SDS011;11296;42.684;23.322;2022-09-03T13:11:27;6.53;;;6.03;;
22254;SDS011;11296;42.684;23.322;2022-09-03T13:14:07;6.95;;;6.38;;
22254;SDS011;11296;42.684;23.322;2022-09-03T13:22:10;5.22;;;4.78;;
22254;SDS011;11296;42.684;23.322;2022-09-03T13:30:46;3.53;;;3.30;;
22254;SDS011;11296;42.684;23.322;2022-09-03T13:33:37;3.65;;;3.35;;
22254;SDS011;11296;42.684;23.322;2022-09-03T13:36:09;3.58;;;3.28;;
22254;SDS011;11296;42.684;23.322;2022-09-03T13:38:44;3.38;;;3.17;;
22254;SDS011;11296;42.684;23.322;2022-09-03T13:47:24;2.97;;;2.78;;
22254;SDS011;11296;42.684;23.322;2022-09-03T13:51:22;3.60;;;3.30;;
22254;SDS011;11296;42.684;23.322;2022-09-03T14:05:37;4.40;;;3.97;;
22254;SDS011;11296;42.684;23.322;2022-09-03T14:12:28;5.15;;;4.75;;
22254;SDS011;11296;42.684;23.322;2022-09-03T14:15:16;3.83;;;3.53;;
22254;SDS011;11296;42.684;23.322;2022-09-03T14:18:02;3.70;;;3.40;;
22254;SDS011;11296;42.684;23.322;2022-09-03T14:21:10;3.55;;;3.30;;
22254;SDS011;11296;42.684;23.322;2022-09-03T14:24:19;4.05;;;3.67;;
22254;SDS011;11296;42.684;23.322;2022-09-03T14:26:56;3.90;;;3.60;;
22254;SDS011;11296;42.684;23.322;2022-09-03T14:29:29;3.90;;;3.60;;
22254;SDS011;11296;42.684;23.322;2022-09-03T15:01:27;3.55;;;3.33;;
22254;SDS011;11296;42.684;23.322;2022-09-03T15:07:20;3.90;;;3.60;;
22254;SDS011;11296;42.684;23.322;2022-09-03T15:13:18;4.60;;;4.30;;
22254;SDS011;11296;42.684;23.322;2022-09-03T15:22:11;3.75;;;3.30;;
22254;SDS011;11296;42.684;23.322;2022-09-03T15:30:40;4.18;;;3.65;;
22254;SDS011;11296;42.684;23.322;2022-09-03T15:33:22;4.07;;;3.67;;
22254;SDS011;11296;42.684;23.322;2022-09-03T15:41:21;4.03;;;3.58;;
22254;SDS011;11296;42.684;23.322;2022-09-03T15:43:58;4.97;;;4.18;;
22254;SDS011;11296;42.684;23.322;2022-09-03T15:46:32;4.75;;;4.35;;
22254;SDS011;11296;42.684;23.322;2022-09-03T15:49:35;4.35;;;3.80;;
22254;SDS011;11296;42.684;23.322;2022-09-03T15:52:20;4.78;;;4.13;;
22254;SDS011;11296;42.684;23.322;2022-09-03T15:54:55;4.82;;;4.43;;
22254;SDS011;11296;42.684;23.322;2022-09-03T15:57:40;4.55;;;4.20;;
22254;SDS011;11296;42.684;23.322;2022-09-03T16:00:19;5.07;;;4.68;;
22254;SDS011;11296;42.684;23.322;2022-09-03T16:05:36;5.63;;;4.78;;
22254;SDS011;11296;42.684;23.322;2022-09-03T16:19:23;5.68;;;5.25;;
22254;SDS011;11296;42.684;23.322;2022-09-03T16:21:59;5.85;;;5.35;;
22254;SDS011;11296;42.684;23.322;2022-09-03T16:24:52;6.43;;;5.82;;
22254;SDS011;11296;42.684;23.322;2022-09-03T16:27:30;6.45;;;5.82;;
22254;SDS011;11296;42.684;23.322;2022-09-03T16:30:12;6.22;;;5.63;;
22254;SDS011;11296;42.684;23.322;2022-09-03T16:44:02;6.60;;;6.00;;
22254;SDS011;11296;42.684;23.322;2022-09-03T16:46:52;6.20;;;5.63;;
22254;SDS011;11296;42.684;23.322;2022-09-03T16:55:12;7.80;;;6.87;;
22254;SDS011;11296;42.684;23.322;2022-09-03T17:00:53;7.43;;;6.40;;
22254;SDS011;11296;42.684;23.322;2022-09-03T17:03:48;11.00;;;7.17;;
22254;SDS011;11296;42.684;23.322;2022-09-03T17:09:13;7.53;;;6.83;;
22254;SDS011;11296;42.684;23.322;2022-09-03T18:05:23;8.73;;;7.57;;
22254;SDS011;11296;42.684;23.322;2022-09-03T18:19:35;8.57;;;7.70;;
22254;SDS011;11296;42.684;23.322;2022-09-03T18:22:32;11.17;;;7.67;;
22254;SDS011;11296;42.684;23.322;2022-09-03T18:25:43;8.73;;;7.90;;
22254;SDS011;11296;42.684;23.322;2022-09-03T18:28:35;8.77;;;7.63;;
22254;SDS011;11296;42.684;23.322;2022-09-03T18:31:29;8.93;;;8.13;;
22254;SDS011;11296;42.684;23.322;2022-09-03T18:34:16;9.20;;;8.30;;
22254;SDS011;11296;42.684;23.322;2022-09-03T18:37:05;9.60;;;8.60;;
22254;SDS011;11296;42.684;23.322;2022-09-03T18:39:50;10.07;;;8.83;;
22254;SDS011;11296;42.684;23.322;2022-09-03T18:42:40;9.73;;;8.73;;
22254;SDS011;11296;42.684;23.322;2022-09-03T18:57:48;9.73;;;8.30;;
22254;SDS011;11296;42.684;23.322;2022-09-03T19:00:40;10.23;;;8.83;;
22254;SDS011;11296;42.684;23.322;2022-09-03T19:03:44;9.43;;;8.53;;
22254;SDS011;11296;42.684;23.322;2022-09-03T19:13:28;10.70;;;9.60;;
22254;SDS011;11296;42.684;23.322;2022-09-03T19:22:33;13.33;;;9.40;;
22254;SDS011;11296;42.684;23.322;2022-09-03T19:25:28;10.93;;;9.40;;
22254;SDS011;11296;42.684;23.322;2022-09-03T19:38:12;9.27;;;8.37;;
22254;SDS011;11296;42.684;23.322;2022-09-03T19:41:30;9.13;;;7.90;;
22254;SDS011;11296;42.684;23.322;2022-09-03T19:51:45;8.80;;;7.93;;
22254;SDS011;11296;42.684;23.322;2022-09-03T19:54:56;9.47;;;8.47;;
22254;SDS011;11296;42.684;23.322;2022-09-03T19:58:00;9.30;;;8.37;;
22254;SDS011;11296;42.684;23.322;2022-09-03T20:04:59;9.73;;;8.60;;
22254;SDS011;11296;42.684;23.322;2022-09-03T20:07:48;9.60;;;8.60;;
22254;SDS011;11296;42.684;23.322;2022-09-03T20:10:40;10.70;;;8.90;;
22254;SDS011;11296;42.684;23.322;2022-09-03T20:13:17;9.57;;;8.63;;
22254;SDS011;11296;42.684;23.322;2022-09-03T20:18:27;12.40;;;9.47;;
22254;SDS011;11296;42.684;23.322;2022-09-03T20:24:20;13.47;;;9.10;;
22254;SDS011;11296;42.684;23.322;2022-09-03T20:39:23;11.23;;;9.50;;
22254;SDS011;11296;42.684;23.322;2022-09-03T20:50:26;10.20;;;9.00;;
22254;SDS011;11296;42.684;23.322;2022-09-03T20:53:08;9.87;;;8.87;;
22254;SDS011;11296;42.684;23.322;2022-09-03T20:55:41;10.40;;;9.30;;
22254;SDS011;11296;42.684;23.322;2022-09-03T21:01:09;12.60;;;9.27;;
22254;SDS011;11296;42.684;23.322;2022-09-03T21:06:46;13.43;;;10.23;;
22254;SDS011;11296;42.684;23.322;2022-09-03T21:09:26;12.03;;;10.47;;
22254;SDS011;11296;42.684;23.322;2022-09-03T21:14:53;12.17;;;10.93;;
22254;SDS011;11296;42.684;23.322;2022-09-03T21:17:48;12.53;;;11.07;;
22254;SDS011;11296;42.684;23.322;2022-09-03T21:23:02;12.53;;;10.67;;
22254;SDS011;11296;42.684;23.322;2022-09-03T21:28:38;12.27;;;10.70;;
22254;SDS011;11296;42.684;23.322;2022-09-03T21:31:37;14.23;;;10.50;;
22254;SDS011;11296;42.684;23.322;2022-09-03T21:34:24;12.97;;;10.40;;
22254;SDS011;11296;42.684;23.322;2022-09-03T21:37:18;13.97;;;10.97;;
22254;SDS011;11296;42.684;23.322;2022-09-03T21:40:08;11.30;;;10.20;;
22254;SDS011;11296;42.684;23.322;2022-09-03T21:42:38;15.23;;;10.43;;
22254;SDS011;11296;42.684;23.322;2022-09-03T21:45:20;13.00;;;10.60;;
22254;SDS011;11296;42.684;23.322;2022-09-03T21:48:33;12.23;;;10.83;;
22254;SDS011;11296;42.684;23.322;2022-09-03T21:51:04;13.47;;;11.20;;
22254;SDS011;11296;42.684;23.322;2022-09-03T21:53:40;13.93;;;11.30;;
22254;SDS011;11296;42.684;23.322;2022-09-03T21:56:31;17.23;;;10.73;;
22254;SDS011;11296;42.684;23.322;2022-09-03T21:59:18;18.30;;;11.13;;
22254;SDS011;11296;42.684;23.322;2022-09-03T22:04:50;14.80;;;12.03;;
22254;SDS011;11296;42.684;23.322;2022-09-03T22:10:08;14.27;;;12.10;;
22254;SDS011;11296;42.684;23.322;2022-09-03T22:15:54;15.80;;;12.13;;
22254;SDS011;11296;42.684;23.322;2022-09-03T22:18:26;16.70;;;13.23;;
22254;SDS011;11296;42.684;23.322;2022-09-03T22:20:59;17.23;;;14.57;;
22254;SDS011;11296;42.684;23.322;2022-09-03T22:26:43;17.80;;;14.20;;
22254;SDS011;11296;42.684;23.322;2022-09-03T22:37:56;16.90;;;12.90;;
22254;SDS011;11296;42.684;23.322;2022-09-03T22:40:25;18.00;;;13.20;;
22254;SDS011;11296;42.684;23.322;2022-09-03T22:43:41;15.17;;;12.33;;
22254;SDS011;11296;42.684;23.322;2022-09-03T22:48:39;15.50;;;12.93;;
22254;SDS011;11296;42.684;23.322;2022-09-03T22:57:14;14.90;;;13.07;;
22254;SDS011;11296;42.684;23.322;2022-09-03T22:59:43;17.70;;;12.50;;
22254;SDS011;11296;42.684;23.322;2022-09-03T23:02:26;15.47;;;12.03;;
22254;SDS011;11296;42.684;23.322;2022-09-03T23:07:53;14.33;;;11.80;;
22254;SDS011;11296;42.684;23.322;2022-09-03T23:10:25;13.77;;;11.73;;
22254;SDS011;11296;42.684;23.322;2022-09-03T23:13:06;14.83;;;12.23;;
22254;SDS011;11296;42.684;23.322;2022-09-03T23:15:38;17.80;;;12.60;;
22254;SDS011;11296;42.684;23.322;2022-09-03T23:20:40;15.77;;;12.63;;